Las Vegas, Nevada (DRI) Weather observations

Data are for observation ending at time listed.
 Day   Time    Ave.   Ave.  Ave.  Vector   Max.   Stn.    Total    Solar   Ave.  
  of    of     Air    Rel.  Wind   Wind    Wind   Baro.  Precip.   Rad.    Soil  
Year   Day     Temp.  Hum.  Speed  Dir.    Gust   Pres.                    Temp. 
2026   (PST)    F      %     mph   deg.    mph     mb.     in.     W/m2     F   
------------------------------------------------------------------------------
 242   12:00   94.5    18    6.9   188     13.4   940.0    0.00     330    98.9
 242   12:10   94.9    18    6.6   200     13.1   939.9    0.00     452    98.9
 242   12:20   96.4    18    6.3   191     13.6   939.8    0.00     754    98.9
 242   12:30   97.2    17    6.2   207     12.9   939.6    0.00     694    99.0
 242   12:40   97.8    17    6.8   210     21.5   939.6    0.00     822    99.2
 242   12:50   98.1    17    6.9   190     16.2   939.4    0.00     669    99.5
 242   13:00   98.7    17    5.5   200     12.6   939.3    0.00     738    99.9
 242   13:10   99.5    17    5.4   186     13.1   939.1    0.00     893    100.4
 242   13:20   99.6    16    5.6   206     15.1   938.9    0.00     776    100.9
 242   13:30   99.6    17    6.4   196     15.4   938.7    0.00     690    101.5
 242   13:40   99.6    17    6.1   197     18.2   938.6    0.00     634    102.1
 242   13:50   99.4    17    5.9   191     12.7   938.4    0.00     671    102.6
 242   14:00   99.3    17    6.0   208     13.5   938.4    0.00     540    103.0
 242   14:10   99.7    17    5.1   202     12.5   938.2    0.00     635    103.4
 242   14:20   99.9    17    5.2   186     12.5   938.2    0.00     512    103.8
 242   14:30  100.3    17    5.7   203     14.2   938.1    0.00     633    104.0
 242   14:40   99.6    17    6.7   191     14.5   938.1    0.00     598    104.2
 242   14:50   99.6    17    5.3   208     15.3   937.9    0.00     537    104.3
 242   15:00  100.1    16    6.1   201     14.0   937.9    0.00     552    104.4
 242   15:10   99.8    16    6.1   188     17.1   937.7    0.00     550    104.4
 242   15:20  100.4    16    5.8   192     14.2   937.7    0.00     502    104.5
 242   15:30   99.9    16    5.6   195     14.8   937.7    0.00     481    104.5
 242   15:40  100.1    16    5.8   190     14.2   937.6    0.00     514    104.4
 242   15:50  100.1    16    4.3   205     11.5   937.6    0.00     334    104.3
 242   16:00  100.6    15    2.3   251     10.4   937.5    0.00     297    104.2
 242   16:10  100.0    16    3.3   206     10.2   937.4    0.00     255    104.2
 242   16:20  100.1    16    2.7   187      8.2   937.3    0.00     346    104.1
 242   16:30  100.7    15    3.4   201      8.3   937.3    0.00     330    104.0
 242   16:40   99.8    15    3.8   231      8.4   937.3    0.00     240    103.9
 242   16:50   99.5    14    5.4   204     13.0   937.2    0.00     222    103.7
 242   17:00   99.1    14    6.0   186     15.3   937.1    0.00     177    103.5
 242   17:10   98.5    14    7.3   186     12.1   937.0    0.00     163    103.2
 242   17:20   98.3    14    6.3   198     15.6   937.0    0.00     138    103.0
 242   17:30   98.2    14    5.2   209     10.8   937.0    0.00      79    102.8
 242   17:40   97.3    15    5.2   195     10.2   937.0    0.00      39    102.6
 242   17:50   96.9    15    4.6   196     11.3   937.0    0.00      25    102.4
 242   18:00   96.6    15    4.7   188      9.5   937.1    0.00      18    102.1
 242   18:10   96.4    16    3.8   214      8.6   937.2    0.00       7    101.9
 242   18:20   96.0    16    3.2   214      8.3   937.2    0.00       3    101.7
 242   18:30   95.8    16    3.4   238      7.3   937.2    0.00       1    101.4
 242   18:40   95.5    16    2.8   222      6.9   937.2    0.00       0    101.2
 242   18:50   95.2    16    3.1   220      7.4   937.4    0.00       0    101.0
 242   19:00   94.7    17    1.8   205      3.1   937.4    0.00       0    100.7
 242   19:10   94.4    17    2.0   195      4.8   937.6    0.00       0    100.5
 242   19:20   94.1    18    1.8   197      4.3   937.7    0.00       0    100.3
 242   19:30   94.2    17    1.6   205      2.9   938.0    0.00       0    100.1
 242   19:40   93.8    18    1.2   196      3.4   938.1    0.00       0    99.9
 242   19:50   94.1    18    0.9   276      4.3   938.3    0.00       0    99.7
 242   20:00   93.7    18    0.8   188      2.0   938.3    0.00       0    99.5
 242   20:10   92.8    20    0.7   160      1.6   938.5    0.00       0    99.3
 242   20:20   91.8    20    0.0     0      0.0   938.5    0.00       0    99.1
 242   20:30   91.1    21    0.0     0      0.0   938.5    0.00       0    98.9
 242   20:40   90.6    21    0.0   268      0.8   938.5    0.00       0    98.7
 242   20:50   91.0    22    0.4   240      1.8   938.5    0.00       0    98.5
 242   21:00   91.2    23    0.8   103      2.6   938.5    0.00       0    98.4
 242   21:10   90.3    24    0.2   222      1.2   938.6    0.00       0    98.2
 242   21:20   89.6    23    0.5   224      2.5   938.6    0.00       0    98.0
 242   21:30   88.6    23    0.2   234      4.6   938.6    0.00       0    97.8
 242   21:40   91.0    20    2.6   180      5.3   938.5    0.00       0    97.6
 242   21:50   90.5    22    1.0   168      2.9   938.6    0.00       0    97.5
 242   22:00   89.5    23    0.9   183      2.6   938.6    0.00       0    97.3
 242   22:10   89.4    22    0.8   198      1.8   938.5    0.00       0    97.1
 242   22:20   89.0    22    1.0   193      3.1   938.5    0.00       0    96.9
 242   22:30   89.6    21    2.1   178      3.7   938.5    0.00       0    96.8
 242   22:40   90.1    21    2.2   183      5.3   938.5    0.00       0    96.6
 242   22:50   89.7    22    0.5   180      2.2   938.4    0.00       0    96.5
 242   23:00   89.1    23    0.4   186      1.2   938.4    0.00       0    96.3
 242   23:10   88.9    25    1.7   164      2.8   938.5    0.00       0    96.2
 242   23:20   88.6    25    1.2   109      3.1   938.7    0.00       0    96.0
 242   23:30   87.9    25    1.9   196      4.0   938.7    0.00       0    95.9
 242   23:40   88.1    25    0.5   160      2.0   938.6    0.00       0    95.8
 242   23:50   87.9    25    0.5    46      1.6   938.8    0.00       0    95.7
 243    0:00   86.8    28    0.6   167      1.9   938.8    0.00       0    95.5
 243    0:10   85.7    29    0.7   175      2.3   938.9    0.00       0    95.4
 243    0:20   85.8    27    1.6   166      3.1   938.8    0.00       0    95.3
 243    0:30   86.1    25    1.1   166      2.0   938.7    0.00       0    95.2
 243    0:40   86.1    24    1.3   157      3.1   938.8    0.00       0    95.1
 243    0:50   86.2    24    1.6   160      3.5   938.8    0.00       0    94.9
 243    1:00   85.9    24    3.2   182      6.0   938.8    0.00       0    94.7
 243    1:10   86.4    23    3.3   184      6.6   938.7    0.00       0    94.6
 243    1:20   86.7    23    2.3   188      6.1   938.8    0.00       0    94.5
 243    1:30   86.8    24    2.7   176      7.6   938.8    0.00       0    94.3
 243    1:40   86.7    24    1.9   168      4.8   938.7    0.00       0    94.2
 243    1:50   86.2    24    1.6   168      3.5   938.9    0.00       0    94.1
 243    2:00   85.7    25    1.9   174      4.6   938.8    0.00       0    94.0
 243    2:10   85.5    26    0.2   160      1.5   938.8    0.00       0    93.9
 243    2:20   84.7    26    1.0   176      3.3   938.9    0.00       0    93.8
 243    2:30   84.8    27    2.8   170      6.6   939.1    0.00       0    93.7
 243    2:40   84.8    27    3.0   170      5.8   939.1    0.00       0    93.6
 243    2:50   84.8    27    2.7   176      4.6   939.2    0.00       0    93.5
 243    3:00   85.0    28    2.6   176      5.3   939.2    0.00       0    93.3
 243    3:10   84.8    28    4.7   179      9.1   939.2    0.00       0    93.2
 243    3:20   84.8    28    4.7   179      8.4   939.2    0.00       0    93.1
 243    3:30   84.8    28    4.0   176      7.6   939.2    0.00       0    93.0
 243    3:40   84.9    28    3.9   186      9.8   939.2    0.00       0    92.9
 243    3:50   85.0    28    4.9   176      9.9   939.2    0.00       0    92.8
 243    4:00   85.0    28    4.8   173     10.7   939.3    0.00       0    92.7
 243    4:10   84.8    28    4.8   179      9.4   939.3    0.00       0    92.6
 243    4:20   84.3    28    3.6   173      6.5   939.4    0.00       0    92.5
 243    4:30   84.0    29    4.1   177      7.4   939.4    0.00       0    92.4
 243    4:40   83.4    29    3.9   175      7.1   939.5    0.00       0    92.4
 243    4:50   83.2    30    2.7   180      6.0   939.5    0.00       0    92.3
 243    5:00   83.3    29    2.7   180      7.1   939.5    0.00       0    92.2
 243    5:10   83.4    29    3.9   179      7.0   939.7    0.00       1    92.1
 243    5:20   83.3    30    2.6   205      5.6   939.8    0.00       4    92.0
 243    5:30   83.3    29    2.9   199      7.3   939.9    0.00       8    92.0
 243    5:40   83.4    29    2.6   191      5.5   940.0    0.00      12    91.9
 243    5:50   83.2    29    3.0   190      6.9   940.1    0.00      15    91.8
 243    6:00   83.2    29    3.0   193      5.6   940.2    0.00      18    91.7
 243    6:10   83.4    29    3.5   187      7.7   940.4    0.00      20    91.6
 243    6:20   83.5    29    3.9   180      9.0   940.6    0.00      22    91.6
 243    6:30   83.5    29    2.5   167      5.9   940.8    0.00      24    91.5
 243    6:40   83.6    30    0.3   221      2.9   940.8    0.00      26    91.4
 243    6:50   83.8    29    2.0   179      5.2   940.8    0.00      27    91.4
 243    7:00   84.4    29    2.0   168      8.4   941.0    0.00      29    91.3
 243    7:10   84.9    28    3.8   176     10.7   941.0    0.00      30    91.3
 243    7:20   85.6    28    3.1   180      9.3   941.1    0.00      31    91.2
 243    7:30   86.1    28    3.6   182      8.7   941.1    0.00      32    91.1
 243    7:40   86.6    28    4.2   180      9.8   941.2    0.00      34    91.1
 243    7:50   87.1    28    3.8   182     11.1   941.2    0.00      36    91.1
 243    8:00   87.8    28    2.1   195      8.0   941.2    0.00      37    91.0
 243    8:10   87.9    29    2.4   185      8.1   941.1    0.00      42    91.0
 243    8:20   88.6    27    1.9   176      5.9   941.2    0.00      44    91.1
 243    8:30   89.0    26    2.7   181     10.2   941.2    0.00      55    91.1
 243    8:40   89.2    27    3.2   176     13.1   941.1    0.00      55    91.1
 243    8:50   89.3    28    4.2   177     10.6   941.2    0.00      71    91.1
 243    9:00   90.1    28    3.1   179      9.1   941.2    0.00      98    91.1
 243    9:10   90.6    26    4.8   176     10.4   941.3    0.00     183    91.2
 243    9:20   91.5    25    4.7   180     10.3   941.4    0.00     481    91.3
 243    9:30   91.8    27    3.2   180      8.2   941.5    0.00     675    91.4
 243    9:40   92.0    29    2.1   183      6.4   941.4    0.00     700    91.5
 243    9:50   92.2    28    2.0   181      5.0   941.3    0.00     720    91.7
 243   10:00   92.2    28    3.7   198      8.9   941.3    0.00     737    92.0
 243   10:10   92.7    28    2.5   176      7.0   941.2    0.00     755    92.3
 243   10:20   93.0    27    3.3   171      8.1   941.1    0.00     770    92.7
 243   10:30   93.5    26    1.9   226      5.8   941.0    0.00     788    93.3
 243   10:40   94.0    26    4.2   173      8.8   940.9    0.00     804    94.1
 243   10:50   94.4    25    1.7   172      8.3   940.8    0.00     818    94.9
 243   11:00   94.7    25    3.4   191     10.0   940.8    0.00     825    95.8
 243   11:10   95.3    24    4.7   189     13.8   940.6    0.00     834    96.6
 243   11:20   95.7    23    5.2   186      9.8   940.5    0.00     842    97.5
 243   11:30   95.8    23    4.3   170     11.8   940.4    0.00     849    98.4
 243   11:40   96.7    22    4.1   176      9.3   940.2    0.00     855    99.2
 243   11:50   96.6    22    2.7   176      8.2   940.0    0.00     862    100.0

Return to Las Vegas, Nevada graphs page.


Western Regional Climate Center,wrcc@dri.edu